sensor_id;sensor_type;location;lat;lon;timestamp;pressure;altitude;pressure_sealevel;temperature;humidity
36258;BME280;22294;52.044;4.582;2022-11-15T00:01:38;76668.69;;;-144.37;100.00
36258;BME280;22294;52.044;4.582;2022-11-15T00:04:05;76664.59;;;-144.37;100.00
36258;BME280;22294;52.044;4.582;2022-11-15T00:06:30;76674.81;;;-144.37;100.00
36258;BME280;22294;52.044;4.582;2022-11-15T00:08:59;76672.78;;;-144.37;100.00
36258;BME280;22294;52.044;4.582;2022-11-15T00:11:25;76672.78;;;-144.37;100.00
36258;BME280;22294;52.044;4.582;2022-11-15T00:13:51;76662.56;;;-144.37;100.00
36258;BME280;22294;52.044;4.582;2022-11-15T00:16:16;76660.50;;;-144.37;100.00
36258;BME280;22294;52.044;4.582;2022-11-15T00:18:41;76656.41;;;-144.37;100.00
36258;BME280;22294;52.044;4.582;2022-11-15T00:21:11;76658.47;;;-144.37;100.00
36258;BME280;22294;52.044;4.582;2022-11-15T00:23:37;76654.38;;;-144.37;100.00
36258;BME280;22294;52.044;4.582;2022-11-15T00:26:03;76650.28;;;-144.37;100.00
36258;BME280;22294;52.044;4.582;2022-11-15T00:28:28;76652.31;;;-144.37;100.00
36258;BME280;22294;52.044;4.582;2022-11-15T00:31:00;76640.06;;;-144.37;100.00
36258;BME280;22294;52.044;4.582;2022-11-15T00:33:25;76640.06;;;-144.37;100.00
36258;BME280;22294;52.044;4.582;2022-11-15T00:35:50;76635.97;;;-144.37;100.00
36258;BME280;22294;52.044;4.582;2022-11-15T00:38:15;76635.97;;;-144.37;100.00
36258;BME280;22294;52.044;4.582;2022-11-15T00:40:41;76629.81;;;-144.37;100.00
36258;BME280;22294;52.044;4.582;2022-11-15T00:43:06;76617.56;;;-144.37;100.00
36258;BME280;22294;52.044;4.582;2022-11-15T00:45:31;76611.41;;;-144.37;100.00
36258;BME280;22294;52.044;4.582;2022-11-15T00:47:56;76611.41;;;-144.37;100.00
36258;BME280;22294;52.044;4.582;2022-11-15T00:50:22;76607.31;;;-144.37;100.00
36258;BME280;22294;52.044;4.582;2022-11-15T00:52:47;76607.31;;;-144.37;100.00
36258;BME280;22294;52.044;4.582;2022-11-15T00:55:17;76605.28;;;-144.37;100.00
36258;BME280;22294;52.044;4.582;2022-11-15T00:57:42;76615.50;;;-144.37;100.00
36258;BME280;22294;52.044;4.582;2022-11-15T01:00:08;76615.50;;;-144.37;100.00
36258;BME280;22294;52.044;4.582;2022-11-15T01:02:34;76613.47;;;-144.37;100.00
36258;BME280;22294;52.044;4.582;2022-11-15T01:04:59;76611.41;;;-144.37;100.00
36258;BME280;22294;52.044;4.582;2022-11-15T01:07:25;76609.38;;;-144.37;100.00
36258;BME280;22294;52.044;4.582;2022-11-15T01:09:50;76607.31;;;-144.37;100.00
36258;BME280;22294;52.044;4.582;2022-11-15T01:12:15;76601.19;;;-144.37;100.00
36258;BME280;22294;52.044;4.582;2022-11-15T01:14:40;76593.00;;;-144.37;100.00
36258;BME280;22294;52.044;4.582;2022-11-15T01:17:06;76584.81;;;-144.37;100.00
36258;BME280;22294;52.044;4.582;2022-11-15T01:19:31;76582.78;;;-144.37;100.00
36258;BME280;22294;52.044;4.582;2022-11-15T01:21:56;76578.69;;;-144.37;100.00
36258;BME280;22294;52.044;4.582;2022-11-15T01:24:22;76574.59;;;-144.37;100.00
36258;BME280;22294;52.044;4.582;2022-11-15T01:26:47;76576.66;;;-144.37;100.00
36258;BME280;22294;52.044;4.582;2022-11-15T01:29:12;76568.47;;;-144.37;100.00
36258;BME280;22294;52.044;4.582;2022-11-15T01:31:37;76566.41;;;-144.37;100.00
36258;BME280;22294;52.044;4.582;2022-11-15T01:34:03;76558.25;;;-144.37;100.00
36258;BME280;22294;52.044;4.582;2022-11-15T01:36:28;76550.06;;;-144.37;100.00
36258;BME280;22294;52.044;4.582;2022-11-15T01:38:54;76548.00;;;-144.37;100.00
36258;BME280;22294;52.044;4.582;2022-11-15T01:41:29;76545.97;;;-144.37;100.00
36258;BME280;22294;52.044;4.582;2022-11-15T01:43:57;76541.88;;;-144.37;100.00
36258;BME280;22294;52.044;4.582;2022-11-15T01:46:24;76533.69;;;-144.37;100.00
36258;BME280;22294;52.044;4.582;2022-11-15T01:48:51;76533.69;;;-144.37;100.00
36258;BME280;22294;52.044;4.582;2022-11-15T01:51:20;76531.66;;;-144.37;100.00
36258;BME280;22294;52.044;4.582;2022-11-15T01:53:49;76525.50;;;-144.37;100.00
36258;BME280;22294;52.044;4.582;2022-11-15T01:56:20;76521.41;;;-144.37;100.00
36258;BME280;22294;52.044;4.582;2022-11-15T01:58:48;76511.19;;;-144.37;100.00
36258;BME280;22294;52.044;4.582;2022-11-15T02:01:14;76509.16;;;-144.37;100.00
36258;BME280;22294;52.044;4.582;2022-11-15T02:03:49;76503.00;;;-144.37;100.00
36258;BME280;22294;52.044;4.582;2022-11-15T02:06:17;76503.00;;;-144.37;100.00
36258;BME280;22294;52.044;4.582;2022-11-15T02:08:44;76488.69;;;-144.37;100.00
36258;BME280;22294;52.044;4.582;2022-11-15T02:11:09;76488.69;;;-144.37;100.00
36258;BME280;22294;52.044;4.582;2022-11-15T02:13:36;76486.66;;;-144.37;100.00
36258;BME280;22294;52.044;4.582;2022-11-15T02:16:29;76480.50;;;-144.37;100.00
36258;BME280;22294;52.044;4.582;2022-11-15T02:19:48;76470.28;;;-144.37;100.00
36258;BME280;22294;52.044;4.582;2022-11-15T02:22:57;76474.38;;;-144.37;100.00
36258;BME280;22294;52.044;4.582;2022-11-15T02:28:10;76464.16;;;-144.37;100.00
36258;BME280;22294;52.044;4.582;2022-11-15T02:33:41;76455.97;;;-144.37;100.00
36258;BME280;22294;52.044;4.582;2022-11-15T02:36:10;76455.97;;;-144.37;100.00
36258;BME280;22294;52.044;4.582;2022-11-15T02:38:49;76447.78;;;-144.37;100.00
36258;BME280;22294;52.044;4.582;2022-11-15T02:41:20;76445.75;;;-144.37;100.00
36258;BME280;22294;52.044;4.582;2022-11-15T02:46:43;76433.47;;;-144.37;100.00
36258;BME280;22294;52.044;4.582;2022-11-15T02:49:29;76431.44;;;-144.37;100.00
36258;BME280;22294;52.044;4.582;2022-11-15T02:51:56;76427.34;;;-144.37;100.00
36258;BME280;22294;52.044;4.582;2022-11-15T02:54:24;76427.34;;;-144.37;100.00
36258;BME280;22294;52.044;4.582;2022-11-15T02:56:53;76423.25;;;-144.37;100.00
36258;BME280;22294;52.044;4.582;2022-11-15T03:00:20;76419.16;;;-144.37;100.00
36258;BME280;22294;52.044;4.582;2022-11-15T03:04:58;76408.94;;;-144.37;100.00
36258;BME280;22294;52.044;4.582;2022-11-15T03:10:40;76402.78;;;-144.37;100.00
36258;BME280;22294;52.044;4.582;2022-11-15T03:13:33;76394.63;;;-144.37;100.00
36258;BME280;22294;52.044;4.582;2022-11-15T03:19:12;76384.38;;;-144.37;100.00
36258;BME280;22294;52.044;4.582;2022-11-15T03:21:39;76380.28;;;-144.37;100.00
36258;BME280;22294;52.044;4.582;2022-11-15T03:24:06;76374.16;;;-144.37;100.00
36258;BME280;22294;52.044;4.582;2022-11-15T03:26:34;76368.03;;;-144.37;100.00
36258;BME280;22294;52.044;4.582;2022-11-15T03:29:06;76351.66;;;-144.37;100.00
36258;BME280;22294;52.044;4.582;2022-11-15T03:31:38;76355.75;;;-144.37;100.00
36258;BME280;22294;52.044;4.582;2022-11-15T03:34:28;76337.34;;;-144.37;100.00
36258;BME280;22294;52.044;4.582;2022-11-15T03:36:54;76325.06;;;-144.37;100.00
36258;BME280;22294;52.044;4.582;2022-11-15T03:39:20;76314.84;;;-144.37;100.00
36258;BME280;22294;52.044;4.582;2022-11-15T03:41:52;76312.81;;;-144.37;100.00
36258;BME280;22294;52.044;4.582;2022-11-15T03:44:42;76310.75;;;-144.37;100.00
36258;BME280;22294;52.044;4.582;2022-11-15T03:47:57;76310.75;;;-144.37;100.00
36258;BME280;22294;52.044;4.582;2022-11-15T03:50:08;76296.44;;;-144.37;100.00
36258;BME280;22294;52.044;4.582;2022-11-15T03:52:35;76298.47;;;-144.37;100.00
36258;BME280;22294;52.044;4.582;2022-11-15T03:55:03;76296.44;;;-144.37;100.00
36258;BME280;22294;52.044;4.582;2022-11-15T03:57:29;76290.31;;;-144.37;100.00
36258;BME280;22294;52.044;4.582;2022-11-15T03:59:54;76288.25;;;-144.37;100.00
36258;BME280;22294;52.044;4.582;2022-11-15T04:02:20;76282.13;;;-144.37;100.00
36258;BME280;22294;52.044;4.582;2022-11-15T04:04:45;76278.03;;;-144.37;100.00
36258;BME280;22294;52.044;4.582;2022-11-15T04:07:10;76276.00;;;-144.37;100.00
36258;BME280;22294;52.044;4.582;2022-11-15T04:09:36;76271.91;;;-144.37;100.00
36258;BME280;22294;52.044;4.582;2022-11-15T04:12:20;76269.84;;;-144.37;100.00
36258;BME280;22294;52.044;4.582;2022-11-15T04:14:59;76267.81;;;-144.37;100.00
36258;BME280;22294;52.044;4.582;2022-11-15T04:17:32;76263.72;;;-144.37;100.00
36258;BME280;22294;52.044;4.582;2022-11-15T04:19:58;76259.63;;;-144.37;100.00
36258;BME280;22294;52.044;4.582;2022-11-15T04:22:42;76251.44;;;-144.37;100.00
36258;BME280;22294;52.044;4.582;2022-11-15T04:25:26;76247.34;;;-144.37;100.00
36258;BME280;22294;52.044;4.582;2022-11-15T04:27:52;76239.16;;;-144.37;100.00
36258;BME280;22294;52.044;4.582;2022-11-15T04:30:17;76235.09;;;-144.37;100.00
36258;BME280;22294;52.044;4.582;2022-11-15T04:32:42;76224.84;;;-144.37;100.00
36258;BME280;22294;52.044;4.582;2022-11-15T04:35:08;76216.69;;;-144.37;100.00
36258;BME280;22294;52.044;4.582;2022-11-15T04:37:33;76214.63;;;-144.37;100.00
36258;BME280;22294;52.044;4.582;2022-11-15T04:39:59;76216.69;;;-144.37;100.00
36258;BME280;22294;52.044;4.582;2022-11-15T04:42:24;76216.69;;;-144.37;100.00
36258;BME280;22294;52.044;4.582;2022-11-15T04:44:49;76218.72;;;-144.37;100.00
36258;BME280;22294;52.044;4.582;2022-11-15T04:47:15;76224.84;;;-144.37;100.00
36258;BME280;22294;52.044;4.582;2022-11-15T04:49:40;76226.91;;;-144.37;100.00
36258;BME280;22294;52.044;4.582;2022-11-15T04:52:05;76228.94;;;-144.37;100.00
36258;BME280;22294;52.044;4.582;2022-11-15T04:54:30;76224.84;;;-144.37;100.00
36258;BME280;22294;52.044;4.582;2022-11-15T04:56:56;76231.00;;;-144.37;100.00
36258;BME280;22294;52.044;4.582;2022-11-15T04:59:21;76231.00;;;-144.37;100.00
36258;BME280;22294;52.044;4.582;2022-11-15T05:01:46;76231.00;;;-144.37;100.00
36258;BME280;22294;52.044;4.582;2022-11-15T05:04:11;76235.09;;;-144.37;100.00
36258;BME280;22294;52.044;4.582;2022-11-15T05:06:48;76231.00;;;-144.37;100.00
36258;BME280;22294;52.044;4.582;2022-11-15T05:09:13;76231.00;;;-144.37;100.00
36258;BME280;22294;52.044;4.582;2022-11-15T05:11:39;76226.91;;;-144.37;100.00
36258;BME280;22294;52.044;4.582;2022-11-15T05:14:05;76231.00;;;-144.37;100.00
36258;BME280;22294;52.044;4.582;2022-11-15T05:16:30;76233.03;;;-144.37;100.00
36258;BME280;22294;52.044;4.582;2022-11-15T05:18:55;76224.84;;;-144.37;100.00
36258;BME280;22294;52.044;4.582;2022-11-15T05:21:21;76216.69;;;-144.37;100.00
36258;BME280;22294;52.044;4.582;2022-11-15T05:23:46;76212.59;;;-144.37;100.00
36258;BME280;22294;52.044;4.582;2022-11-15T05:26:12;76206.44;;;-144.37;100.00
36258;BME280;22294;52.044;4.582;2022-11-15T05:28:39;76208.50;;;-144.37;100.00
36258;BME280;22294;52.044;4.582;2022-11-15T05:31:12;76204.41;;;-144.37;100.00
36258;BME280;22294;52.044;4.582;2022-11-15T05:33:38;76206.44;;;-144.37;100.00
36258;BME280;22294;52.044;4.582;2022-11-15T05:36:07;76198.28;;;-144.37;100.00
36258;BME280;22294;52.044;4.582;2022-11-15T05:38:35;76194.19;;;-144.37;100.00
36258;BME280;22294;52.044;4.582;2022-11-15T05:41:01;76192.13;;;-144.37;100.00
36258;BME280;22294;52.044;4.582;2022-11-15T05:43:29;76192.13;;;-144.37;100.00
36258;BME280;22294;52.044;4.582;2022-11-15T05:45:57;76192.13;;;-144.37;100.00
36258;BME280;22294;52.044;4.582;2022-11-15T05:48:23;76188.03;;;-144.37;100.00
36258;BME280;22294;52.044;4.582;2022-11-15T05:50:48;76194.19;;;-144.37;100.00
36258;BME280;22294;52.044;4.582;2022-11-15T05:53:16;76194.19;;;-144.37;100.00
36258;BME280;22294;52.044;4.582;2022-11-15T05:55:42;76196.22;;;-144.37;100.00
36258;BME280;22294;52.044;4.582;2022-11-15T05:58:08;76188.03;;;-144.37;100.00
36258;BME280;22294;52.044;4.582;2022-11-15T06:00:33;76190.09;;;-144.37;100.00
36258;BME280;22294;52.044;4.582;2022-11-15T06:02:59;76196.22;;;-144.37;100.00
36258;BME280;22294;52.044;4.582;2022-11-15T06:05:24;76198.28;;;-144.37;100.00
36258;BME280;22294;52.044;4.582;2022-11-15T06:07:49;76198.28;;;-144.37;100.00
36258;BME280;22294;52.044;4.582;2022-11-15T06:10:15;76204.41;;;-144.37;100.00
36258;BME280;22294;52.044;4.582;2022-11-15T06:12:40;76206.44;;;-144.37;100.00
36258;BME280;22294;52.044;4.582;2022-11-15T06:15:06;76204.41;;;-144.37;100.00
36258;BME280;22294;52.044;4.582;2022-11-15T06:17:31;76202.38;;;-144.37;100.00
36258;BME280;22294;52.044;4.582;2022-11-15T06:19:56;76208.50;;;-144.37;100.00
36258;BME280;22294;52.044;4.582;2022-11-15T06:22:21;76210.53;;;-144.37;100.00
36258;BME280;22294;52.044;4.582;2022-11-15T06:24:47;76212.59;;;-144.37;100.00
36258;BME280;22294;52.044;4.582;2022-11-15T06:27:12;76208.50;;;-144.37;100.00
36258;BME280;22294;52.044;4.582;2022-11-15T06:29:37;76218.72;;;-144.37;100.00
36258;BME280;22294;52.044;4.582;2022-11-15T06:32:03;76220.75;;;-144.37;100.00
36258;BME280;22294;52.044;4.582;2022-11-15T06:34:28;76228.94;;;-144.37;100.00
36258;BME280;22294;52.044;4.582;2022-11-15T06:36:54;76231.00;;;-144.37;100.00
36258;BME280;22294;52.044;4.582;2022-11-15T06:39:19;76226.91;;;-144.37;100.00
36258;BME280;22294;52.044;4.582;2022-11-15T06:41:44;76228.94;;;-144.37;100.00
36258;BME280;22294;52.044;4.582;2022-11-15T06:44:09;76233.03;;;-144.37;100.00
36258;BME280;22294;52.044;4.582;2022-11-15T06:46:35;76233.03;;;-144.37;100.00
36258;BME280;22294;52.044;4.582;2022-11-15T06:49:00;76235.09;;;-144.37;100.00
36258;BME280;22294;52.044;4.582;2022-11-15T06:51:25;76239.16;;;-144.37;100.00
36258;BME280;22294;52.044;4.582;2022-11-15T06:53:51;76251.44;;;-144.37;100.00
36258;BME280;22294;52.044;4.582;2022-11-15T06:56:16;76255.53;;;-144.37;100.00
36258;BME280;22294;52.044;4.582;2022-11-15T06:58:41;76257.59;;;-144.37;100.00
36258;BME280;22294;52.044;4.582;2022-11-15T07:01:10;76253.50;;;-144.37;100.00
36258;BME280;22294;52.044;4.582;2022-11-15T07:03:40;76251.44;;;-144.37;100.00
36258;BME280;22294;52.044;4.582;2022-11-15T07:06:06;76247.34;;;-144.37;100.00
36258;BME280;22294;52.044;4.582;2022-11-15T07:08:32;76239.16;;;-144.37;100.00
36258;BME280;22294;52.044;4.582;2022-11-15T07:10:59;76237.13;;;-144.37;100.00
36258;BME280;22294;52.044;4.582;2022-11-15T07:13:28;76239.16;;;-144.37;100.00
36258;BME280;22294;52.044;4.582;2022-11-15T07:15:53;76237.13;;;-144.37;100.00
36258;BME280;22294;52.044;4.582;2022-11-15T07:18:19;76233.03;;;-144.37;100.00
36258;BME280;22294;52.044;4.582;2022-11-15T07:20:44;76235.09;;;-144.37;100.00
36258;BME280;22294;52.044;4.582;2022-11-15T07:23:09;76235.09;;;-144.37;100.00
36258;BME280;22294;52.044;4.582;2022-11-15T07:25:35;76237.13;;;-144.37;100.00
36258;BME280;22294;52.044;4.582;2022-11-15T07:28:00;76233.03;;;-144.37;100.00
36258;BME280;22294;52.044;4.582;2022-11-15T07:30:26;76235.09;;;-144.37;100.00
36258;BME280;22294;52.044;4.582;2022-11-15T07:32:56;76231.00;;;-144.37;100.00
36258;BME280;22294;52.044;4.582;2022-11-15T07:35:22;76222.81;;;-144.37;100.00
36258;BME280;22294;52.044;4.582;2022-11-15T07:37:58;76212.59;;;-144.37;100.00
36258;BME280;22294;52.044;4.582;2022-11-15T07:40:25;76210.53;;;-144.37;100.00
36258;BME280;22294;52.044;4.582;2022-11-15T07:42:51;76220.75;;;-144.37;100.00
36258;BME280;22294;52.044;4.582;2022-11-15T07:45:21;76210.53;;;-144.37;100.00
36258;BME280;22294;52.044;4.582;2022-11-15T07:47:48;76208.50;;;-144.37;100.00
36258;BME280;22294;52.044;4.582;2022-11-15T07:50:13;76208.50;;;-144.37;100.00
36258;BME280;22294;52.044;4.582;2022-11-15T07:52:39;76208.50;;;-144.37;100.00
36258;BME280;22294;52.044;4.582;2022-11-15T07:55:04;76210.53;;;-144.37;100.00
36258;BME280;22294;52.044;4.582;2022-11-15T07:57:30;76218.72;;;-144.37;100.00
36258;BME280;22294;52.044;4.582;2022-11-15T07:59:55;76210.53;;;-144.37;100.00
36258;BME280;22294;52.044;4.582;2022-11-15T08:02:20;76204.41;;;-144.37;100.00
36258;BME280;22294;52.044;4.582;2022-11-15T08:04:46;76206.44;;;-144.37;100.00
36258;BME280;22294;52.044;4.582;2022-11-15T08:07:11;76204.41;;;-144.37;100.00
36258;BME280;22294;52.044;4.582;2022-11-15T08:09:37;76216.69;;;-144.37;100.00
36258;BME280;22294;52.044;4.582;2022-11-15T08:12:02;76218.72;;;-144.37;100.00
36258;BME280;22294;52.044;4.582;2022-11-15T08:14:28;76210.53;;;-144.37;100.00
36258;BME280;22294;52.044;4.582;2022-11-15T08:16:54;76210.53;;;-144.37;100.00
36258;BME280;22294;52.044;4.582;2022-11-15T08:19:19;76204.41;;;-144.37;100.00
36258;BME280;22294;52.044;4.582;2022-11-15T08:21:45;76194.19;;;-144.37;100.00
36258;BME280;22294;52.044;4.582;2022-11-15T08:24:10;76186.00;;;-144.37;100.00
36258;BME280;22294;52.044;4.582;2022-11-15T08:26:36;76179.88;;;-144.37;100.00
36258;BME280;22294;52.044;4.582;2022-11-15T08:29:01;76169.63;;;-144.37;100.00
36258;BME280;22294;52.044;4.582;2022-11-15T08:31:26;76171.69;;;-144.37;100.00
36258;BME280;22294;52.044;4.582;2022-11-15T08:33:51;76173.72;;;-144.37;100.00
36258;BME280;22294;52.044;4.582;2022-11-15T08:36:17;76167.59;;;-144.37;100.00
36258;BME280;22294;52.044;4.582;2022-11-15T08:38:43;76165.53;;;-144.37;100.00
36258;BME280;22294;52.044;4.582;2022-11-15T08:41:14;76157.38;;;-144.37;100.00
36258;BME280;22294;52.044;4.582;2022-11-15T08:43:44;76151.22;;;-144.37;100.00
36258;BME280;22294;52.044;4.582;2022-11-15T08:46:13;76145.09;;;-144.37;100.00
36258;BME280;22294;52.044;4.582;2022-11-15T08:48:38;76104.19;;;-144.37;100.00
36258;BME280;22294;52.044;4.582;2022-11-15T08:51:04;76083.75;;;-144.37;100.00
36258;BME280;22294;52.044;4.582;2022-11-15T08:53:29;76073.50;;;-144.37;100.00
36258;BME280;22294;52.044;4.582;2022-11-15T08:55:54;76075.56;;;-144.37;100.00
36258;BME280;22294;52.044;4.582;2022-11-15T08:58:20;76083.75;;;-144.37;100.00
36258;BME280;22294;52.044;4.582;2022-11-15T09:00:45;76081.69;;;-144.37;100.00
36258;BME280;22294;52.044;4.582;2022-11-15T09:03:10;76081.69;;;-144.37;100.00
36258;BME280;22294;52.044;4.582;2022-11-15T09:05:36;76083.75;;;-144.37;100.00
36258;BME280;22294;52.044;4.582;2022-11-15T09:08:02;76075.56;;;-144.37;100.00
36258;BME280;22294;52.044;4.582;2022-11-15T09:10:28;76077.59;;;-144.37;100.00
36258;BME280;22294;52.044;4.582;2022-11-15T09:12:53;76075.56;;;-144.37;100.00
36258;BME280;22294;52.044;4.582;2022-11-15T09:15:18;76069.44;;;-144.37;100.00
36258;BME280;22294;52.044;4.582;2022-11-15T09:17:44;76065.34;;;-144.37;100.00
36258;BME280;22294;52.044;4.582;2022-11-15T09:20:10;76061.25;;;-144.37;100.00
36258;BME280;22294;52.044;4.582;2022-11-15T09:22:36;76059.19;;;-144.37;100.00
36258;BME280;22294;52.044;4.582;2022-11-15T09:25:04;76061.25;;;-144.37;100.00
36258;BME280;22294;52.044;4.582;2022-11-15T09:27:29;76059.19;;;-144.37;100.00
36258;BME280;22294;52.044;4.582;2022-11-15T09:29:55;76055.09;;;-144.37;100.00
36258;BME280;22294;52.044;4.582;2022-11-15T09:32:20;76042.84;;;-144.37;100.00
36258;BME280;22294;52.044;4.582;2022-11-15T09:34:47;76044.88;;;-144.37;100.00
36258;BME280;22294;52.044;4.582;2022-11-15T09:37:13;76032.63;;;-144.37;100.00
36258;BME280;22294;52.044;4.582;2022-11-15T09:39:38;76020.34;;;-144.37;100.00
36258;BME280;22294;52.044;4.582;2022-11-15T09:45:10;76001.94;;;-144.37;100.00
36258;BME280;22294;52.044;4.582;2022-11-15T09:47:49;76006.03;;;-144.37;100.00
36258;BME280;22294;52.044;4.582;2022-11-15T09:50:32;76003.97;;;-144.37;100.00
36258;BME280;22294;52.044;4.582;2022-11-15T09:52:59;75997.84;;;-144.37;100.00
36258;BME280;22294;52.044;4.582;2022-11-15T09:55:37;76006.03;;;-144.37;100.00
36258;BME280;22294;52.044;4.582;2022-11-15T09:58:25;75993.75;;;-144.37;100.00
36258;BME280;22294;52.044;4.582;2022-11-15T10:00:52;75991.72;;;-144.37;100.00
36258;BME280;22294;52.044;4.582;2022-11-15T10:03:33;75979.44;;;-144.37;100.00
36258;BME280;22294;52.044;4.582;2022-11-15T10:06:04;75975.34;;;-144.37;100.00
36258;BME280;22294;52.044;4.582;2022-11-15T10:09:02;75967.16;;;-144.37;100.00
36258;BME280;22294;52.044;4.582;2022-11-15T10:11:34;75961.03;;;-144.37;100.00
36258;BME280;22294;52.044;4.582;2022-11-15T10:14:17;75961.03;;;-144.37;100.00
36258;BME280;22294;52.044;4.582;2022-11-15T10:19:42;75963.09;;;-144.37;99.80
36258;BME280;22294;52.044;4.582;2022-11-15T10:24:44;75944.69;;;-144.37;99.73
36258;BME280;22294;52.044;4.582;2022-11-15T10:27:13;75938.53;;;-144.37;100.00
36258;BME280;22294;52.044;4.582;2022-11-15T10:29:49;75930.38;;;-144.37;99.28
36258;BME280;22294;52.044;4.582;2022-11-15T10:32:17;75926.28;;;-144.37;98.65
36258;BME280;22294;52.044;4.582;2022-11-15T10:34:43;75922.19;;;-144.37;97.98
36258;BME280;22294;52.044;4.582;2022-11-15T10:37:08;75911.94;;;-144.37;98.52
36258;BME280;22294;52.044;4.582;2022-11-15T10:39:34;75897.63;;;-144.37;98.72
36258;BME280;22294;52.044;4.582;2022-11-15T10:42:15;75891.50;;;-144.37;97.74
36258;BME280;22294;52.044;4.582;2022-11-15T10:44:43;75885.38;;;-144.37;97.28
36258;BME280;22294;52.044;4.582;2022-11-15T10:47:30;75883.31;;;-144.37;96.66
36258;BME280;22294;52.044;4.582;2022-11-15T10:49:59;75877.19;;;-144.37;96.09
36258;BME280;22294;52.044;4.582;2022-11-15T10:52:25;75889.47;;;-144.37;95.30
36258;BME280;22294;52.044;4.582;2022-11-15T10:54:56;75891.50;;;-144.37;95.03
36258;BME280;22294;52.044;4.582;2022-11-15T10:57:29;75883.31;;;-144.37;95.22
36258;BME280;22294;52.044;4.582;2022-11-15T11:00:02;75887.41;;;-144.37;94.93
36258;BME280;22294;52.044;4.582;2022-11-15T11:02:36;75875.16;;;-144.37;94.91
36258;BME280;22294;52.044;4.582;2022-11-15T11:05:06;75875.16;;;-144.37;93.75
36258;BME280;22294;52.044;4.582;2022-11-15T11:07:34;75869.00;;;-144.37;94.08
36258;BME280;22294;52.044;4.582;2022-11-15T11:10:25;75862.88;;;-144.37;93.85
36258;BME280;22294;52.044;4.582;2022-11-15T11:12:51;75860.81;;;-144.37;94.44
36258;BME280;22294;52.044;4.582;2022-11-15T11:15:17;75850.59;;;-144.37;93.99
36258;BME280;22294;52.044;4.582;2022-11-15T11:18:04;75844.47;;;-144.37;93.20
36258;BME280;22294;52.044;4.582;2022-11-15T11:20:38;75834.25;;;-144.37;93.32
36258;BME280;22294;52.044;4.582;2022-11-15T11:28:45;75813.78;;;-144.37;92.31
36258;BME280;22294;52.044;4.582;2022-11-15T11:36:42;75797.44;;;-144.37;90.95
36258;BME280;22294;52.044;4.582;2022-11-15T11:39:48;75801.53;;;-144.37;90.39
36258;BME280;22294;52.044;4.582;2022-11-15T11:45:37;75783.13;;;-144.37;90.83
36258;BME280;22294;52.044;4.582;2022-11-15T11:51:10;75776.97;;;-144.37;89.53
36258;BME280;22294;52.044;4.582;2022-11-15T11:56:32;75766.75;;;-144.37;89.29
36258;BME280;22294;52.044;4.582;2022-11-15T11:59:19;75758.59;;;-144.37;88.65
36258;BME280;22294;52.044;4.582;2022-11-15T12:01:46;75762.66;;;-144.37;89.03
36258;BME280;22294;52.044;4.582;2022-11-15T12:04:18;75758.59;;;-144.37;88.50
36258;BME280;22294;52.044;4.582;2022-11-15T12:07:01;75756.53;;;-144.37;88.77
36258;BME280;22294;52.044;4.582;2022-11-15T12:09:39;75748.34;;;-144.37;88.86
36258;BME280;22294;52.044;4.582;2022-11-15T12:12:20;75734.03;;;-144.37;88.58
36258;BME280;22294;52.044;4.582;2022-11-15T12:15:02;75719.72;;;-144.37;87.81
36258;BME280;22294;52.044;4.582;2022-11-15T12:17:29;75707.47;;;-144.37;87.47
36258;BME280;22294;52.044;4.582;2022-11-15T12:19:58;75699.28;;;-144.37;87.13
36258;BME280;22294;52.044;4.582;2022-11-15T12:22:40;75684.97;;;-144.37;87.19
36258;BME280;22294;52.044;4.582;2022-11-15T12:25:16;75672.69;;;-144.37;86.69
36258;BME280;22294;52.044;4.582;2022-11-15T12:31:05;75650.19;;;-144.37;85.76
36258;BME280;22294;52.044;4.582;2022-11-15T12:33:41;75646.09;;;-144.37;84.97
36258;BME280;22294;52.044;4.582;2022-11-15T12:41:15;75637.94;;;-144.37;84.77
36258;BME280;22294;52.044;4.582;2022-11-15T12:43:43;75627.72;;;-144.37;85.34
36258;BME280;22294;52.044;4.582;2022-11-15T12:48:59;75613.38;;;-144.37;83.87
36258;BME280;22294;52.044;4.582;2022-11-15T12:59:49;75621.56;;;-144.37;82.71
36258;BME280;22294;52.044;4.582;2022-11-15T13:02:19;75615.44;;;-144.37;82.69
36258;BME280;22294;52.044;4.582;2022-11-15T13:04:46;75615.44;;;-144.37;83.01
36258;BME280;22294;52.044;4.582;2022-11-15T13:09:59;75613.38;;;-144.37;82.87
36258;BME280;22294;52.044;4.582;2022-11-15T13:17:44;75629.75;;;-144.37;82.68
36258;BME280;22294;52.044;4.582;2022-11-15T13:30:54;75619.53;;;-144.37;83.66
36258;BME280;22294;52.044;4.582;2022-11-15T13:35:57;75619.53;;;-144.37;82.51
36258;BME280;22294;52.044;4.582;2022-11-15T13:38:35;75619.53;;;-144.37;81.32
36258;BME280;22294;52.044;4.582;2022-11-15T13:41:17;75611.34;;;-144.37;81.33
36258;BME280;22294;52.044;4.582;2022-11-15T13:43:43;75607.25;;;-144.37;80.89
36258;BME280;22294;52.044;4.582;2022-11-15T13:46:22;75609.31;;;-144.37;80.40
36258;BME280;22294;52.044;4.582;2022-11-15T13:48:56;75607.25;;;-144.37;81.62
36258;BME280;22294;52.044;4.582;2022-11-15T13:51:44;75597.03;;;-144.37;80.60
36258;BME280;22294;52.044;4.582;2022-11-15T13:56:45;75599.06;;;-144.37;80.13
36258;BME280;22294;52.044;4.582;2022-11-15T14:01:49;75599.06;;;-144.37;80.10
36258;BME280;22294;52.044;4.582;2022-11-15T14:04:19;75595.00;;;-144.37;79.76
36258;BME280;22294;52.044;4.582;2022-11-15T14:06:48;75588.84;;;-144.37;80.83
36258;BME280;22294;52.044;4.582;2022-11-15T14:09:45;75586.81;;;-144.37;81.07
36258;BME280;22294;52.044;4.582;2022-11-15T14:12:32;75574.53;;;-144.37;80.45
36258;BME280;22294;52.044;4.582;2022-11-15T14:15:27;75584.75;;;-144.37;81.34
36258;BME280;22294;52.044;4.582;2022-11-15T14:17:53;75582.72;;;-144.37;81.72